Lapis Arrow — C6VH5 — position and weather

sailwx.info

Track history (hours):
 
Tides and Currents Weather Stations Pressure Air Temp Water Temp Dewpoint Dewpoint Depression Visibility Wind Speed Wind Dir Waves Ship Positions

Lapis Arrow

Last reported at 2017-Jan-10 08:31 UTC. Time now 2017-Jan-18 08:06 UTC.
Position N 36°51' W 075°51'.

Length 176 m; draft 7.3 m.

Type: Cargo ship. MMSI: 308800800.

Date/timePositionNaut miles runAvg speedWind from/ knotsBaromVisibWave heightAir tempDewpointWater temp
2017-Jan-10 08:31N 36°51' W 075°51'9 9.6
2017-Jan-10 07:33N 36°58' W 075°59'6916.3
2017-Jan-10 03:19N 38°06' W 076°13'3918.7
2017-Jan-10 01:14N 38°43' W 076°26'1319.1
2017-Jan-10 00:33N 38°56' W 076°23'1514.7
2017-Jan-09 23:34N 39°10' W 076°26'8 8.2
2017-Jan-09 22:33N 39°15' W 076°35'0 0.0
2017-Jan-09 21:31N 39°15' W 076°35'0 0.0
2017-Jan-09 20:30N 39°15' W 076°35'0 0.0
2017-Jan-09 19:32N 39°15' W 076°35'0 0.0
2017-Jan-09 18:32N 39°15' W 076°35'0 0.0
2017-Jan-09 17:33N 39°15' W 076°35'0 0.0
2017-Jan-09 16:33N 39°15' W 076°35'0 0.0
2017-Jan-09 15:33N 39°15' W 076°35'0 0.0
2017-Jan-09 14:33N 39°15' W 076°35'0 0.0
2017-Jan-09 13:16N 39°15' W 076°35'0 0.0
2017-Jan-09 12:20N 39°15' W 076°35'0 0.0
2017-Jan-09 10:29N 39°15' W 076°35'0 0.0
2017-Jan-09 09:31N 39°15' W 076°35'0 0.0
2017-Jan-09 08:33N 39°15' W 076°35'3 2.8
2017-Jan-09 07:33N 39°13' W 076°32'1110.7
2017-Jan-09 06:33N 39°05' W 076°24'12216.9
2017-Jan-08 23:22N 37°04' W 076°06'1113.9
2017-Jan-08 22:33N 36°56' W 075°56'  
2017-Jan-05 08:33N 25°48' W 079°25'  
2017-Jan-03 03:33N 28°01' W 094°25'1817.4
2017-Jan-03 02:33N 28°19' W 094°26'1717.2
2017-Jan-03 01:32N 28°36' W 094°25'1917.2
2017-Jan-03 00:26N 28°55' W 094°26'2914.2
2017-Jan-02 22:24N 29°20' W 094°41'1012.2
2017-Jan-02 21:33N 29°27' W 094°51'1212.0
2017-Jan-02 20:33N 29°37' W 094°59'1 0.8
2017-Jan-02 19:28N 29°37' W 094°59'0 0.0
2017-Jan-02 18:27N 29°37' W 094°59'0 0.0
2017-Jan-02 17:28N 29°37' W 094°59'0 0.0
2017-Jan-02 16:32N 29°37' W 094°59'0 0.0
2017-Jan-02 15:29N 29°37' W 094°59'0 0.0
2017-Jan-02 14:30N 29°37' W 094°59'0 0.0
2017-Jan-02 13:33N 29°37' W 094°59'0 0.0
2017-Jan-02 12:32N 29°37' W 094°59'0 0.0
2017-Jan-02 11:31N 29°37' W 094°59'0 0.0
2017-Jan-02 10:33N 29°37' W 094°59'0 0.0
2017-Jan-02 09:31N 29°37' W 094°59'0 0.0
2017-Jan-02 08:26N 29°37' W 094°59'0 0.0
2017-Jan-02 07:32N 29°37' W 094°59'0 0.0
2017-Jan-02 06:32N 29°37' W 094°59'0 0.0
2017-Jan-02 05:28N 29°37' W 094°59'0 0.0
2017-Jan-02 04:27N 29°37' W 094°59'0 0.0
2017-Jan-02 03:31N 29°37' W 094°59'0 0.0
2017-Jan-02 02:33N 29°37' W 094°59'6 5.7
2017-Jan-02 01:33N 29°33' W 094°54'25 5.8
2017-Jan-01 21:10N 29°17' W 094°32'0 0.0
2017-Jan-01 20:23N 29°17' W 094°32'0 0.0
2017-Jan-01 19:30N 29°17' W 094°32'0 0.0
2017-Jan-01 18:08N 29°17' W 094°32'  
Track history (hours):
 
Tides and Currents Weather Stations Pressure Air Temp Water Temp Dewpoint Dewpoint Depression Visibility Wind Speed Wind Dir Waves Ship Positions

Lapis Arrow

Last reported at 2017-Jan-10 08:31 UTC. Time now 2017-Jan-18 08:06 UTC.
Position N 36°51' W 075°51'.

Length 176 m; draft 7.3 m.

Type: Cargo ship. MMSI: 308800800.

Date/timePositionNaut miles runAvg speedWind from/ knotsBaromVisibWave heightAir tempDewpointWater temp
2017-Jan-10 08:31N 36°51' W 075°51'9 9.6
2017-Jan-10 07:33N 36°58' W 075°59'6916.3
2017-Jan-10 03:19N 38°06' W 076°13'3918.7
2017-Jan-10 01:14N 38°43' W 076°26'1319.1
2017-Jan-10 00:33N 38°56' W 076°23'1514.7
2017-Jan-09 23:34N 39°10' W 076°26'8 8.2
2017-Jan-09 22:33N 39°15' W 076°35'0 0.0
2017-Jan-09 21:31N 39°15' W 076°35'0 0.0
2017-Jan-09 20:30N 39°15' W 076°35'0 0.0
2017-Jan-09 19:32N 39°15' W 076°35'0 0.0
2017-Jan-09 18:32N 39°15' W 076°35'0 0.0
2017-Jan-09 17:33N 39°15' W 076°35'0 0.0
2017-Jan-09 16:33N 39°15' W 076°35'0 0.0
2017-Jan-09 15:33N 39°15' W 076°35'0 0.0
2017-Jan-09 14:33N 39°15' W 076°35'0 0.0
2017-Jan-09 13:16N 39°15' W 076°35'0 0.0
2017-Jan-09 12:20N 39°15' W 076°35'0 0.0
2017-Jan-09 10:29N 39°15' W 076°35'0 0.0
2017-Jan-09 09:31N 39°15' W 076°35'0 0.0
2017-Jan-09 08:33N 39°15' W 076°35'3 2.8
2017-Jan-09 07:33N 39°13' W 076°32'1110.7
2017-Jan-09 06:33N 39°05' W 076°24'12216.9
2017-Jan-08 23:22N 37°04' W 076°06'1113.9
2017-Jan-08 22:33N 36°56' W 075°56'  
2017-Jan-05 08:33N 25°48' W 079°25'  
2017-Jan-03 03:33N 28°01' W 094°25'1817.4
2017-Jan-03 02:33N 28°19' W 094°26'1717.2
2017-Jan-03 01:32N 28°36' W 094°25'1917.2
2017-Jan-03 00:26N 28°55' W 094°26'2914.2
2017-Jan-02 22:24N 29°20' W 094°41'1012.2
2017-Jan-02 21:33N 29°27' W 094°51'1212.0
2017-Jan-02 20:33N 29°37' W 094°59'1 0.8
2017-Jan-02 19:28N 29°37' W 094°59'0 0.0
2017-Jan-02 18:27N 29°37' W 094°59'0 0.0
2017-Jan-02 17:28N 29°37' W 094°59'0 0.0
2017-Jan-02 16:32N 29°37' W 094°59'0 0.0
2017-Jan-02 15:29N 29°37' W 094°59'0 0.0
2017-Jan-02 14:30N 29°37' W 094°59'0 0.0
2017-Jan-02 13:33N 29°37' W 094°59'0 0.0
2017-Jan-02 12:32N 29°37' W 094°59'0 0.0
2017-Jan-02 11:31N 29°37' W 094°59'0 0.0
2017-Jan-02 10:33N 29°37' W 094°59'0 0.0
2017-Jan-02 09:31N 29°37' W 094°59'0 0.0
2017-Jan-02 08:26N 29°37' W 094°59'0 0.0
2017-Jan-02 07:32N 29°37' W 094°59'0 0.0
2017-Jan-02 06:32N 29°37' W 094°59'0 0.0
2017-Jan-02 05:28N 29°37' W 094°59'0 0.0
2017-Jan-02 04:27N 29°37' W 094°59'0 0.0
2017-Jan-02 03:31N 29°37' W 094°59'0 0.0
2017-Jan-02 02:33N 29°37' W 094°59'6 5.7
2017-Jan-02 01:33N 29°33' W 094°54'25 5.8
2017-Jan-01 21:10N 29°17' W 094°32'0 0.0
2017-Jan-01 20:23N 29°17' W 094°32'0 0.0
2017-Jan-01 19:30N 29°17' W 094°32'0 0.0
2017-Jan-01 18:08N 29°17' W 094°32'  

Dump ship's entire track history